New Bavaria, Ohio
Current Conditions -  °F | °C
As of 4:53 AM on Saturday 25 Oct 2014 (Local Time) from KDFI Reporting Station
Haze Haze  
Wind Chill: 50°   Ceiling: 10000
Heat Index: 50°   Visibility: 4mi
Dew Point: 48°   Wind: 5mph
Humidity: 93%   Direction: 200°SSW
Pressure: 29.92"   Gusts: NA
Location:  41.2°N, 84.17°W
Report Text: KDFI 250853Z AUTO 20004KT 4SM BR SCT080 OVC100 10/09 A2992 RMK AO2 SLP132 T01000089 58015
Loading
Personal Weather Stations






























Interactive Weather Map
Tropical Storm Tracking
New forecast layout! Learn more

10-Day Weather Forecast

Advertisements
Track Severe Weather on mobile